Terminal Aerodrome Forecast
Issued by NWS Albuquerque, NM

Home | Current Version | Previous Version | Text Only | Print | Product List | Glossary On
Versions: 1 2 3 4 5 6 7 8 9 10 11 12 13
000
FTUS45 KABQ 271737
TAFABQ
TAF
KABQ 271737Z 2718/2818 VRB04KT P6SM FEW120
     FM280100 16006KT P6SM SCT120
     FM280400 11004KT P6SM BKN120=

USA.gov is the U.S. government's official web portal to all federal, state and local government web resources and services.